createdAt,value
2023-02-02T00:00:00.118Z,64.49
2023-02-02T00:01:00.124Z,54.57
2023-02-02T00:02:00.112Z,56.02
2023-02-02T00:03:00.075Z,57.42
2023-02-02T00:04:00.185Z,59.69
2023-02-02T00:05:00.040Z,57.63
2023-02-02T00:06:00.047Z,57.37
2023-02-02T00:07:00.045Z,67.81
2023-02-02T00:08:00.040Z,64.01
2023-02-02T00:08:59.990Z,55.53
2023-02-02T00:10:00.001Z,55.08
2023-02-02T00:10:59.991Z,62.69
2023-02-02T00:11:59.981Z,59.53
2023-02-02T00:12:59.997Z,54.28
2023-02-02T00:13:59.981Z,53.97
2023-02-02T00:14:59.939Z,55.37
2023-02-02T00:15:59.990Z,50.80
2023-02-02T00:16:59.942Z,52.92
2023-02-02T00:17:59.940Z,54.92
2023-02-02T00:18:59.905Z,55.87
2023-02-02T00:19:59.893Z,54.77
2023-02-02T00:20:59.892Z,56.60
2023-02-02T00:21:59.905Z,57.36
2023-02-02T00:22:59.861Z,57.31
2023-02-02T00:23:59.899Z,58.76
2023-02-02T00:24:59.850Z,60.62
2023-02-02T00:25:59.844Z,61.24
2023-02-02T00:26:59.831Z,60.21
2023-02-02T00:27:59.808Z,60.90
2023-02-02T00:28:59.847Z,62.20
2023-02-02T00:29:59.824Z,61.13
2023-02-02T00:30:59.846Z,63.94
2023-02-02T00:31:59.818Z,61.64
2023-02-02T00:32:59.783Z,62.55
2023-02-02T00:33:59.781Z,65.87
2023-02-02T00:34:59.771Z,65.98
2023-02-02T00:35:59.748Z,59.86
2023-02-02T00:36:59.765Z,57.67
2023-02-02T00:37:59.727Z,58.61
2023-02-02T00:38:59.718Z,62.41
2023-02-02T00:39:59.711Z,52.82
2023-02-02T00:40:59.694Z,50.15
2023-02-02T00:41:59.711Z,51.78
2023-02-02T00:42:59.676Z,48.72
2023-02-02T00:43:59.663Z,50.38
2023-02-02T00:44:59.700Z,58.20
2023-02-02T00:45:59.670Z,61.08
2023-02-02T00:46:59.665Z,51.33
2023-02-02T00:47:59.671Z,51.45
2023-02-02T00:48:59.617Z,56.06
2023-02-02T00:49:59.622Z,51.59
2023-02-02T00:50:59.599Z,47.53
2023-02-02T00:51:59.627Z,46.42
2023-02-02T00:52:59.630Z,51.96
2023-02-02T00:53:59.574Z,56.99
2023-02-02T00:54:59.588Z,62.31
2023-02-02T00:55:59.597Z,50.91
2023-02-02T00:56:59.568Z,50.43
2023-02-02T00:57:59.531Z,59.03
2023-02-02T00:58:59.524Z,56.23
2023-02-02T00:59:59.507Z,52.90
2023-02-02T01:00:59.535Z,48.11
2023-02-02T01:01:59.530Z,54.09
2023-02-02T01:02:59.489Z,52.25
2023-02-02T01:03:59.511Z,60.05
2023-02-02T01:04:59.475Z,63.55
2023-02-02T01:05:59.462Z,54.47
2023-02-02T01:06:59.472Z,56.26
2023-02-02T01:07:59.453Z,56.22
2023-02-02T01:08:59.430Z,57.24
2023-02-02T01:09:59.443Z,58.68
2023-02-02T01:10:59.427Z,58.18
2023-02-02T01:11:59.417Z,64.07
2023-02-02T01:13:31.274Z,65.05
2023-02-02T01:13:59.353Z,65.11
2023-02-02T01:14:59.341Z,64.32
2023-02-02T01:15:59.334Z,64.94
2023-02-02T01:16:59.331Z,65.38
2023-02-02T01:17:59.329Z,65.30
2023-02-02T01:18:59.323Z,65.61
2023-02-02T01:19:59.304Z,65.50
2023-02-02T01:20:59.285Z,66.03
2023-02-02T01:21:59.284Z,66.15
2023-02-02T01:22:59.298Z,66.00
2023-02-02T01:23:59.278Z,66.34
2023-02-02T01:24:59.243Z,67.11
2023-02-02T01:25:59.231Z,67.51
2023-02-02T01:26:59.225Z,68.10
2023-02-02T01:27:59.214Z,66.96
2023-02-02T01:28:59.220Z,67.22
2023-02-02T01:29:59.197Z,67.50
2023-02-02T01:30:59.308Z,67.52
2023-02-02T01:31:59.191Z,67.65
2023-02-02T01:32:59.174Z,67.18
2023-02-02T01:33:59.171Z,68.08
2023-02-02T01:34:59.152Z,66.07
2023-02-02T01:35:59.158Z,67.75
2023-02-02T01:36:59.158Z,68.64
2023-02-02T01:37:59.117Z,66.63
2023-02-02T01:38:59.111Z,66.95
2023-02-02T01:39:59.135Z,65.85
2023-02-02T01:40:59.096Z,66.02
2023-02-02T01:41:59.082Z,67.91
2023-02-02T01:42:59.070Z,68.56
2023-02-02T01:43:59.083Z,66.88
2023-02-02T01:44:59.054Z,54.99
2023-02-02T01:46:00.059Z,57.12
2023-02-02T01:46:59.056Z,66.09
2023-02-02T01:47:59.033Z,61.98
2023-02-02T01:48:59.032Z,56.28
2023-02-02T01:49:59.029Z,55.90
2023-02-02T01:50:59.002Z,56.07
2023-02-02T01:51:58.996Z,55.59
2023-02-02T01:52:58.971Z,58.17
2023-02-02T01:53:58.973Z,56.22
2023-02-02T01:54:59.009Z,54.65
2023-02-02T01:55:58.923Z,54.96
2023-02-02T01:56:58.957Z,56.46
2023-02-02T01:57:58.933Z,63.30
2023-02-02T01:58:58.921Z,64.19
2023-02-02T01:59:58.903Z,64.25
2023-02-02T02:00:58.947Z,53.74
2023-02-02T02:01:58.918Z,59.88
2023-02-02T02:02:58.873Z,61.00
2023-02-02T02:03:59.875Z,57.53
2023-02-02T02:04:58.883Z,53.98
2023-02-02T02:05:58.922Z,55.46
2023-02-02T02:06:58.845Z,53.67
2023-02-02T02:07:58.830Z,55.49
2023-02-02T02:08:58.845Z,55.63
2023-02-02T02:09:58.813Z,49.90
2023-02-02T02:10:58.805Z,50.41
2023-02-02T02:11:58.793Z,54.23
2023-02-02T02:12:58.783Z,53.52
2023-02-02T02:13:58.803Z,53.51
2023-02-02T02:14:58.778Z,53.56
2023-02-02T02:15:58.754Z,49.35
2023-02-02T02:16:58.777Z,52.04
2023-02-02T02:17:58.738Z,50.71
2023-02-02T02:18:58.721Z,51.70
2023-02-02T02:19:58.712Z,49.54
2023-02-02T02:20:58.714Z,49.51
2023-02-02T02:21:58.722Z,48.89
2023-02-02T02:22:58.692Z,50.32
2023-02-02T02:23:58.680Z,50.53
2023-02-02T02:24:58.673Z,51.42
2023-02-02T02:25:58.667Z,52.49
2023-02-02T02:26:58.668Z,54.42
2023-02-02T02:28:00.775Z,54.72
2023-02-02T02:28:58.654Z,57.87
2023-02-02T02:29:58.631Z,59.13
2023-02-02T02:30:58.716Z,59.33
2023-02-02T02:31:58.608Z,64.05
2023-02-02T02:32:58.604Z,66.24
2023-02-02T02:33:58.578Z,67.68
2023-02-02T02:34:58.586Z,69.46
2023-02-02T02:35:58.562Z,69.72
2023-02-02T02:36:58.552Z,68.10
2023-02-02T02:37:58.558Z,67.62
2023-02-02T02:38:58.535Z,68.17
2023-02-02T02:39:58.543Z,68.39
2023-02-02T02:40:58.515Z,69.00
2023-02-02T02:41:58.517Z,68.98
2023-02-02T02:42:58.519Z,69.76
2023-02-02T02:43:58.496Z,68.65
2023-02-02T02:44:58.482Z,68.33
2023-02-02T02:45:58.517Z,69.73
2023-02-02T02:46:58.459Z,69.54
2023-02-02T02:47:58.499Z,68.86
2023-02-02T02:48:58.433Z,68.05
2023-02-02T02:49:58.434Z,64.64
2023-02-02T02:50:58.422Z,64.93
2023-02-02T02:51:58.407Z,55.40
2023-02-02T02:52:58.424Z,56.24
2023-02-02T02:53:58.395Z,55.93
2023-02-02T02:54:58.382Z,55.86
2023-02-02T02:55:58.362Z,55.17
2023-02-02T02:56:58.367Z,55.71
2023-02-02T02:57:58.339Z,54.45
2023-02-02T02:58:58.363Z,55.12
2023-02-02T02:59:58.336Z,54.69
2023-02-02T03:00:58.349Z,53.92
2023-02-02T03:01:58.322Z,55.99
2023-02-02T03:02:58.403Z,55.71
2023-02-02T03:03:58.296Z,53.40
2023-02-02T03:04:58.288Z,53.77
2023-02-02T03:05:58.285Z,56.31
2023-02-02T03:06:58.259Z,54.29
2023-02-02T03:07:58.312Z,56.01
2023-02-02T03:08:58.240Z,55.62
2023-02-02T03:09:58.233Z,52.55
2023-02-02T03:10:58.233Z,53.87
2023-02-02T03:11:58.241Z,53.76
2023-02-02T03:12:58.226Z,53.09
2023-02-02T03:13:58.196Z,54.28
2023-02-02T03:14:58.192Z,54.66
2023-02-02T03:15:58.230Z,52.64
2023-02-02T03:16:58.179Z,52.66
2023-02-02T03:17:58.167Z,52.32
2023-02-02T03:18:58.156Z,54.87
2023-02-02T03:19:58.148Z,59.38
2023-02-02T03:20:58.229Z,63.49
2023-02-02T03:21:58.128Z,51.27
2023-02-02T03:22:58.134Z,51.27
2023-02-02T03:23:58.112Z,60.51
2023-02-02T03:24:58.103Z,57.20
2023-02-02T03:25:58.089Z,62.43
2023-02-02T03:26:58.086Z,49.36
2023-02-02T03:27:58.079Z,53.40
2023-02-02T03:28:58.052Z,59.81
2023-02-02T03:29:58.044Z,56.61
2023-02-02T03:30:58.104Z,48.86
2023-02-02T03:31:58.024Z,51.58
2023-02-02T03:32:58.036Z,57.11
2023-02-02T03:33:58.017Z,51.29
2023-02-02T03:34:58.130Z,53.74
2023-02-02T03:35:58.007Z,49.76
2023-02-02T03:36:57.977Z,48.77
2023-02-02T03:37:57.983Z,45.82
2023-02-02T03:38:57.979Z,53.80
2023-02-02T03:39:57.978Z,53.15
2023-02-02T03:40:57.952Z,52.04
2023-02-02T03:41:57.941Z,50.79
2023-02-02T03:42:57.933Z,61.82
2023-02-02T03:43:57.915Z,64.05
2023-02-02T03:44:57.919Z,51.04
2023-02-02T03:45:57.919Z,52.29
2023-02-02T03:46:57.886Z,62.66
2023-02-02T03:47:57.888Z,57.07
2023-02-02T03:48:57.863Z,51.53
2023-02-02T03:49:57.854Z,56.12
2023-02-02T03:50:57.853Z,61.83
2023-02-02T03:51:57.847Z,54.64
2023-02-02T03:52:57.821Z,59.68
2023-02-02T03:53:57.820Z,48.24
2023-02-02T03:54:57.816Z,50.18
2023-02-02T03:55:57.820Z,55.20
2023-02-02T03:56:57.796Z,54.25
2023-02-02T03:57:57.793Z,54.50
2023-02-02T03:58:57.782Z,56.10
2023-02-02T03:59:57.765Z,60.77
2023-02-02T04:00:57.776Z,59.35
2023-02-02T04:01:57.791Z,53.97
2023-02-02T04:02:57.774Z,57.87
2023-02-02T04:03:57.751Z,56.54
2023-02-02T04:04:57.723Z,58.55
2023-02-02T04:05:57.711Z,66.05
2023-02-02T04:06:57.693Z,54.23
2023-02-02T04:07:57.693Z,52.37
2023-02-02T04:08:57.692Z,55.10
2023-02-02T04:09:57.679Z,57.26
2023-02-02T04:10:57.676Z,54.91
2023-02-02T04:11:57.651Z,54.18
2023-02-02T04:12:57.658Z,58.71
2023-02-02T04:13:57.626Z,64.94
2023-02-02T04:14:57.621Z,65.09
2023-02-02T04:15:57.609Z,56.62
2023-02-02T04:16:57.605Z,52.85
2023-02-02T04:17:57.612Z,55.83
2023-02-02T04:18:57.573Z,56.78
2023-02-02T04:19:57.571Z,57.40
2023-02-02T04:20:57.560Z,65.20
2023-02-02T04:21:57.547Z,56.96
2023-02-02T04:22:57.541Z,56.32
2023-02-02T04:23:57.553Z,55.64
2023-02-02T04:24:57.523Z,58.95
2023-02-02T04:25:57.520Z,54.86
2023-02-02T04:26:57.503Z,54.61
2023-02-02T04:27:57.488Z,55.79
2023-02-02T04:28:57.503Z,56.68
2023-02-02T04:29:57.476Z,67.59
2023-02-02T04:30:57.484Z,54.17
2023-02-02T04:31:57.550Z,55.88
2023-02-02T04:32:57.451Z,54.51
2023-02-02T04:33:57.454Z,54.62
2023-02-02T04:34:57.429Z,54.39
2023-02-02T04:35:57.426Z,67.71
2023-02-02T04:36:57.387Z,64.22
2023-02-02T04:37:57.398Z,61.34
2023-02-02T04:38:57.394Z,59.68
2023-02-02T04:39:57.378Z,58.51
2023-02-02T04:40:57.361Z,56.81
2023-02-02T04:41:57.358Z,61.65
2023-02-02T04:42:57.356Z,58.57
2023-02-02T04:43:57.354Z,68.60
2023-02-02T04:44:57.352Z,57.15
2023-02-02T04:45:57.403Z,65.85
2023-02-02T04:46:57.324Z,61.18
2023-02-02T04:47:57.305Z,57.36
2023-02-02T04:48:57.298Z,63.18
2023-02-02T04:49:57.307Z,58.76
2023-02-02T04:50:57.273Z,58.46
2023-02-02T04:51:57.305Z,55.05
2023-02-02T04:52:57.263Z,57.91
2023-02-02T04:53:57.248Z,61.81
2023-02-02T04:54:57.304Z,57.50
2023-02-02T04:55:57.229Z,55.43
2023-02-02T04:56:57.219Z,58.99
2023-02-02T04:57:57.219Z,65.25
2023-02-02T04:58:57.199Z,57.81
2023-02-02T04:59:57.209Z,58.50
2023-02-02T05:00:57.253Z,59.92
2023-02-02T05:01:57.170Z,57.36
2023-02-02T05:02:57.154Z,59.71
2023-02-02T05:03:57.167Z,57.26
2023-02-02T05:04:57.137Z,66.04
2023-02-02T05:05:57.150Z,58.97
2023-02-02T05:06:57.127Z,57.49
2023-02-02T05:07:57.112Z,59.58
2023-02-02T05:08:57.110Z,60.47
2023-02-02T05:09:57.094Z,59.37
2023-02-02T05:10:57.071Z,66.28
2023-02-02T05:11:57.079Z,58.42
2023-02-02T05:12:57.073Z,58.91
2023-02-02T05:13:57.073Z,58.88
2023-02-02T05:14:57.037Z,60.86
2023-02-02T05:15:57.043Z,60.75
2023-02-02T05:16:57.047Z,60.67
2023-02-02T05:17:57.020Z,55.97
2023-02-02T05:18:57.034Z,57.96
2023-02-02T05:19:57.007Z,57.67
2023-02-02T05:20:56.988Z,60.25
2023-02-02T05:21:56.987Z,57.96
2023-02-02T05:22:56.972Z,60.21
2023-02-02T05:23:56.963Z,59.02
2023-02-02T05:24:56.963Z,60.08
2023-02-02T05:25:56.937Z,59.69
2023-02-02T05:26:56.948Z,60.48
2023-02-02T05:27:56.940Z,59.58
2023-02-02T05:28:57.916Z,59.96
2023-02-02T05:29:56.905Z,60.32
2023-02-02T05:30:56.928Z,58.41
2023-02-02T05:31:56.917Z,59.66
2023-02-02T05:32:56.898Z,60.02
2023-02-02T05:33:56.868Z,59.61
2023-02-02T05:34:56.865Z,57.82
2023-02-02T05:35:56.848Z,58.82
2023-02-02T05:36:56.841Z,58.05
2023-02-02T05:37:59.063Z,64.94
2023-02-02T05:38:57.816Z,60.77
2023-02-02T05:39:56.819Z,58.61
2023-02-02T05:40:56.815Z,61.25
2023-02-02T05:41:56.806Z,76.99
2023-02-02T05:42:56.805Z,74.69
2023-02-02T05:43:56.764Z,76.23
2023-02-02T05:44:56.750Z,68.75
2023-02-02T05:45:57.784Z,64.93
2023-02-02T05:46:56.766Z,61.24
2023-02-02T05:47:56.761Z,61.64
2023-02-02T05:48:56.720Z,62.70
2023-02-02T05:49:56.705Z,61.63
2023-02-02T05:50:56.707Z,57.94
2023-02-02T05:51:56.685Z,62.23
2023-02-02T05:52:56.706Z,60.72
2023-02-02T05:53:56.677Z,59.78
2023-02-02T05:54:56.670Z,59.61
2023-02-02T05:55:56.656Z,59.85
2023-02-02T05:56:56.639Z,60.38
2023-02-02T05:57:56.657Z,61.48
2023-02-02T05:58:56.633Z,67.12
2023-02-02T05:59:56.612Z,60.74
2023-02-02T06:00:56.965Z,59.69
2023-02-02T06:01:56.619Z,60.34
2023-02-02T06:02:56.615Z,60.15
2023-02-02T06:03:56.593Z,60.25
2023-02-02T06:04:56.579Z,61.23
2023-02-02T06:05:56.572Z,60.96
2023-02-02T06:06:56.607Z,59.27
2023-02-02T06:07:56.540Z,60.45
2023-02-02T06:08:56.535Z,61.05
2023-02-02T06:09:56.521Z,60.35
2023-02-02T06:10:56.527Z,64.74
2023-02-02T06:11:56.513Z,60.27
2023-02-02T06:12:56.491Z,60.05
2023-02-02T06:13:56.523Z,68.10
2023-02-02T06:14:56.468Z,62.02
2023-02-02T06:15:56.528Z,61.63
2023-02-02T06:16:56.452Z,59.91
2023-02-02T06:17:56.482Z,61.33
2023-02-02T06:18:56.466Z,59.30
2023-02-02T06:19:56.417Z,61.28
2023-02-02T06:20:56.440Z,60.19
2023-02-02T06:21:56.425Z,60.14
2023-02-02T06:22:56.418Z,67.86
2023-02-02T06:23:56.402Z,61.40
2023-02-02T06:24:56.388Z,60.92
2023-02-02T06:25:56.373Z,60.87
2023-02-02T06:26:56.411Z,59.79
2023-02-02T06:27:56.372Z,60.77
2023-02-02T06:28:56.345Z,66.77
2023-02-02T06:29:56.335Z,61.51
2023-02-02T06:30:56.438Z,61.68
2023-02-02T06:31:56.383Z,62.31
2023-02-02T06:32:56.325Z,63.45
2023-02-02T06:33:56.304Z,66.93
2023-02-02T06:34:56.281Z,60.87
2023-02-02T06:35:56.274Z,62.62
2023-02-02T06:36:56.252Z,60.49
2023-02-02T06:37:56.264Z,63.93
2023-02-02T06:38:56.254Z,61.17
2023-02-02T06:39:56.239Z,62.79
2023-02-02T06:40:56.222Z,61.10
2023-02-02T06:41:56.211Z,62.33
2023-02-02T06:42:56.192Z,62.10
2023-02-02T06:43:56.205Z,63.97
2023-02-02T06:44:56.191Z,60.71
2023-02-02T06:45:56.188Z,63.49
2023-02-02T06:46:56.168Z,61.31
2023-02-02T06:47:56.165Z,60.20
2023-02-02T06:48:56.170Z,60.57
2023-02-02T06:49:56.126Z,62.24
2023-02-02T06:50:56.126Z,65.82
2023-02-02T06:51:56.104Z,60.41
2023-02-02T06:52:56.121Z,59.91
2023-02-02T06:53:58.358Z,66.24
2023-02-02T06:54:56.079Z,60.19
2023-02-02T06:55:56.091Z,67.20
2023-02-02T06:56:56.097Z,58.93
2023-02-02T06:57:56.058Z,65.43
2023-02-02T06:58:56.047Z,59.46
2023-02-02T06:59:56.023Z,59.71
2023-02-02T07:00:56.014Z,58.66
2023-02-02T07:01:56.064Z,65.75
2023-02-02T07:02:56.132Z,58.71
2023-02-02T07:03:55.996Z,59.02
2023-02-02T07:04:55.974Z,66.24
2023-02-02T07:05:55.971Z,60.00
2023-02-02T07:06:55.967Z,67.58
2023-02-02T07:07:55.990Z,60.34
2023-02-02T07:08:59.600Z,63.01
2023-02-02T07:09:58.352Z,59.87
2023-02-02T07:11:11.960Z,59.48
2023-02-02T07:11:59.026Z,60.70
2023-02-02T07:12:55.927Z,60.63
2023-02-02T07:14:27.799Z,59.59
2023-02-02T07:14:55.888Z,61.56
2023-02-02T07:15:55.920Z,64.55
2023-02-02T07:16:55.867Z,60.07
2023-02-02T07:17:55.853Z,61.27
2023-02-02T07:18:55.869Z,60.06
2023-02-02T07:19:55.882Z,60.66
2023-02-02T07:20:55.842Z,59.14
2023-02-02T07:21:55.820Z,59.84
2023-02-02T07:22:55.807Z,59.36
2023-02-02T07:23:55.802Z,62.77
2023-02-02T07:24:55.809Z,59.60
2023-02-02T07:25:55.783Z,59.01
2023-02-02T07:26:55.863Z,59.94
2023-02-02T07:27:55.783Z,64.38
2023-02-02T07:28:55.775Z,63.90
2023-02-02T07:29:55.799Z,59.58
2023-02-02T07:30:55.806Z,60.15
2023-02-02T07:31:55.777Z,69.72
2023-02-02T07:32:55.747Z,60.66
2023-02-02T07:33:55.710Z,60.87
2023-02-02T07:34:55.730Z,65.84
2023-02-02T07:35:55.711Z,60.06
2023-02-02T07:36:55.684Z,60.40
2023-02-02T07:37:55.683Z,59.80
2023-02-02T07:38:55.675Z,60.58
2023-02-02T07:39:55.660Z,61.22
2023-02-02T07:40:55.686Z,59.03
2023-02-02T07:41:55.649Z,61.11
2023-02-02T07:42:55.623Z,60.71
2023-02-02T07:43:55.619Z,61.10
2023-02-02T07:44:55.595Z,60.43
2023-02-02T07:45:55.599Z,60.57
2023-02-02T07:46:55.616Z,59.42
2023-02-02T07:47:55.580Z,61.38
2023-02-02T07:48:55.591Z,62.15
2023-02-02T07:49:55.549Z,61.01
2023-02-02T07:50:55.571Z,67.06
2023-02-02T07:51:55.561Z,59.79
2023-02-02T07:52:55.568Z,59.95
2023-02-02T07:53:55.540Z,61.06
2023-02-02T07:55:05.384Z,59.78
2023-02-02T07:55:57.630Z,59.74
2023-02-02T07:56:55.516Z,59.96
2023-02-02T07:57:55.622Z,62.23
2023-02-02T07:58:55.783Z,65.27
2023-02-02T07:59:55.452Z,60.43
2023-02-02T08:00:55.513Z,60.41
2023-02-02T08:01:55.488Z,60.60
2023-02-02T08:02:55.475Z,66.20
2023-02-02T08:03:55.445Z,62.42
2023-02-02T08:04:55.422Z,59.06
2023-02-02T08:05:55.393Z,61.40
2023-02-02T08:06:55.400Z,60.61
2023-02-02T08:07:55.378Z,66.06
2023-02-02T08:08:55.386Z,61.67
2023-02-02T08:09:55.361Z,60.10
2023-02-02T08:10:55.346Z,63.96
2023-02-02T08:11:55.358Z,61.26
2023-02-02T08:12:55.333Z,57.64
2023-02-02T08:13:55.351Z,60.62
2023-02-02T08:14:55.325Z,60.21
2023-02-02T08:15:55.378Z,60.52
2023-02-02T08:16:55.292Z,60.02
2023-02-02T08:17:55.279Z,60.66
2023-02-02T08:18:55.283Z,64.15
2023-02-02T08:19:55.294Z,68.46
2023-02-02T08:20:55.271Z,61.52
2023-02-02T08:21:55.248Z,60.21
2023-02-02T08:22:55.276Z,60.10
2023-02-02T08:23:55.268Z,60.33
2023-02-02T08:24:55.247Z,59.23
2023-02-02T08:25:55.223Z,63.57
2023-02-02T08:26:55.221Z,59.84
2023-02-02T08:27:55.188Z,59.74
2023-02-02T08:28:55.186Z,67.27
2023-02-02T08:29:55.170Z,59.74
2023-02-02T08:30:55.235Z,61.00
2023-02-02T08:31:55.236Z,58.77
2023-02-02T08:32:55.142Z,60.54
2023-02-02T08:33:55.135Z,61.20
2023-02-02T08:34:55.243Z,68.11
2023-02-02T08:35:55.136Z,61.49
2023-02-02T08:36:55.114Z,62.84
2023-02-02T08:37:55.131Z,60.79
2023-02-02T08:38:55.097Z,60.76
2023-02-02T08:39:55.111Z,60.83
2023-02-02T08:40:55.095Z,61.42
2023-02-02T08:41:55.069Z,62.21
2023-02-02T08:42:55.079Z,60.90
2023-02-02T08:43:55.041Z,60.64
2023-02-02T08:46:04.053Z,59.39
2023-02-02T08:46:13.025Z,65.77
2023-02-02T08:46:56.037Z,58.34
2023-02-02T08:48:09.513Z,61.00
2023-02-02T08:48:57.004Z,60.14
2023-02-02T08:49:55.006Z,65.39
2023-02-02T08:50:54.982Z,66.35
2023-02-02T08:51:55.930Z,59.31
2023-02-02T08:52:54.959Z,66.83
2023-02-02T08:53:54.963Z,61.07
2023-02-02T08:54:54.971Z,63.61
2023-02-02T08:55:54.923Z,65.64
2023-02-02T08:56:54.919Z,59.66
2023-02-02T08:57:54.917Z,57.40
2023-02-02T08:58:54.895Z,66.99
2023-02-02T08:59:54.894Z,60.69
2023-02-02T09:00:54.942Z,59.74
2023-02-02T09:01:54.958Z,59.91
2023-02-02T09:02:54.876Z,60.39
2023-02-02T09:03:54.845Z,59.73
2023-02-02T09:04:54.848Z,62.97
2023-02-02T09:05:54.855Z,60.53
2023-02-02T09:06:54.853Z,62.87
2023-02-02T09:07:54.810Z,59.43
2023-02-02T09:08:54.805Z,60.23
2023-02-02T09:09:54.812Z,60.78
2023-02-02T09:10:54.824Z,61.44
2023-02-02T09:11:54.770Z,59.70
2023-02-02T09:12:54.780Z,59.97
2023-02-02T09:13:54.772Z,61.84
2023-02-02T09:14:54.760Z,65.25
2023-02-02T09:15:54.728Z,64.90
2023-02-02T09:16:54.827Z,61.54
2023-02-02T09:17:54.756Z,59.95
2023-02-02T09:18:54.717Z,65.20
2023-02-02T09:19:54.688Z,59.63
2023-02-02T09:20:55.804Z,60.22
2023-02-02T09:21:54.677Z,62.04
2023-02-02T09:22:54.674Z,61.12
2023-02-02T09:23:54.710Z,65.61
2023-02-02T09:24:54.681Z,59.51
2023-02-02T09:25:54.643Z,60.04
2023-02-02T09:26:54.675Z,59.63
2023-02-02T09:27:54.629Z,60.40
2023-02-02T09:28:54.616Z,62.40
2023-02-02T09:29:54.623Z,59.01
2023-02-02T09:30:54.646Z,60.54
2023-02-02T09:31:54.589Z,60.12
2023-02-02T09:32:54.586Z,60.44
2023-02-02T09:33:54.561Z,59.71
2023-02-02T09:34:54.558Z,60.45
2023-02-02T09:35:54.542Z,60.14
2023-02-02T09:36:54.549Z,59.20
2023-02-02T09:37:54.520Z,60.58
2023-02-02T09:38:54.537Z,63.80
2023-02-02T09:39:54.505Z,65.29
2023-02-02T09:40:54.486Z,60.53
2023-02-02T09:41:54.484Z,61.59
2023-02-02T09:42:54.480Z,60.17
2023-02-02T09:43:54.486Z,60.08
2023-02-02T09:44:54.451Z,61.55
2023-02-02T09:45:54.479Z,61.83
2023-02-02T09:46:54.421Z,60.67
2023-02-02T09:47:54.431Z,59.77
2023-02-02T09:48:54.447Z,62.69
2023-02-02T09:49:54.399Z,60.50
2023-02-02T09:50:54.432Z,61.96
2023-02-02T09:51:54.398Z,59.44
2023-02-02T09:52:54.370Z,60.27
2023-02-02T09:53:55.834Z,68.03
2023-02-02T09:54:55.371Z,59.51
2023-02-02T09:55:54.355Z,61.96
2023-02-02T09:56:54.328Z,59.31
2023-02-02T09:57:54.324Z,58.15
2023-02-02T09:58:54.346Z,60.62
2023-02-02T09:59:54.300Z,61.28
2023-02-02T10:00:54.397Z,61.44
2023-02-02T10:01:54.314Z,62.51
2023-02-02T10:02:54.272Z,66.06
2023-02-02T10:03:54.290Z,59.19
2023-02-02T10:04:54.275Z,60.10
2023-02-02T10:05:54.261Z,67.96
2023-02-02T10:06:54.246Z,59.78
2023-02-02T10:07:54.266Z,62.93
2023-02-02T10:08:54.225Z,59.61
2023-02-02T10:09:54.236Z,58.58
2023-02-02T10:10:54.232Z,58.49
2023-02-02T10:11:54.183Z,60.28
2023-02-02T10:12:54.177Z,62.89
2023-02-02T10:13:54.179Z,65.74
2023-02-02T10:14:54.200Z,60.00
2023-02-02T10:15:54.195Z,64.09
2023-02-02T10:16:54.153Z,60.72
2023-02-02T10:17:54.132Z,67.55
2023-02-02T10:18:54.128Z,63.15
2023-02-02T10:19:54.115Z,62.48
2023-02-02T10:20:54.111Z,61.11
2023-02-02T10:21:54.158Z,61.35
2023-02-02T10:22:54.105Z,60.74
2023-02-02T10:23:54.197Z,62.67
2023-02-02T10:24:54.074Z,65.87
2023-02-02T10:25:54.058Z,62.45
2023-02-02T10:26:54.140Z,61.43
2023-02-02T10:27:54.028Z,63.10
2023-02-02T10:28:54.047Z,61.49
2023-02-02T10:29:55.013Z,62.47
2023-02-02T10:30:54.117Z,61.07
2023-02-02T10:31:54.156Z,60.25
2023-02-02T10:32:53.983Z,71.23
2023-02-02T10:33:53.993Z,59.50
2023-02-02T10:35:06.769Z,60.29
2023-02-02T10:35:55.955Z,71.66
2023-02-02T10:36:53.968Z,62.15
2023-02-02T10:37:54.056Z,60.74
2023-02-02T10:38:53.926Z,62.48
2023-02-02T10:39:53.990Z,64.81
2023-02-02T10:40:53.942Z,67.41
2023-02-02T10:41:53.894Z,61.98
2023-02-02T10:42:53.901Z,63.26
2023-02-02T10:43:54.008Z,62.42
2023-02-02T10:44:53.913Z,62.85
2023-02-02T10:45:53.986Z,60.75
2023-02-02T10:46:53.869Z,61.01
2023-02-02T10:47:53.840Z,61.42
2023-02-02T10:48:53.878Z,64.59
2023-02-02T10:49:56.175Z,59.34
2023-02-02T10:50:54.849Z,61.32
2023-02-02T10:51:53.838Z,63.66
2023-02-02T10:52:53.852Z,60.54
2023-02-02T10:53:53.816Z,60.19
2023-02-02T10:54:57.716Z,70.09
2023-02-02T10:55:54.762Z,60.57
2023-02-02T10:56:53.772Z,62.91
2023-02-02T10:57:53.799Z,62.37
2023-02-02T10:58:53.760Z,59.77
2023-02-02T10:59:53.746Z,62.15
2023-02-02T11:00:53.717Z,62.69
2023-02-02T11:01:53.802Z,67.94
2023-02-02T11:02:53.793Z,60.66
2023-02-02T11:03:53.697Z,60.17
2023-02-02T11:04:53.693Z,59.45
2023-02-02T11:05:53.683Z,60.32
2023-02-02T11:06:53.764Z,63.11
2023-02-02T11:07:54.724Z,61.08
2023-02-02T11:08:53.655Z,66.10
2023-02-02T11:09:53.643Z,61.09
2023-02-02T11:10:53.632Z,65.12
2023-02-02T11:11:53.635Z,63.84
2023-02-02T11:12:53.611Z,66.50
2023-02-02T11:13:53.610Z,60.64
2023-02-02T11:14:53.626Z,60.01
2023-02-02T11:15:53.624Z,61.35
2023-02-02T11:16:53.570Z,66.27
2023-02-02T11:17:53.551Z,62.46
2023-02-02T11:18:53.569Z,61.52
2023-02-02T11:19:53.555Z,59.93
2023-02-02T11:20:53.546Z,61.97
2023-02-02T11:21:53.552Z,61.36
2023-02-02T11:22:53.531Z,64.08
2023-02-02T11:23:53.511Z,63.89
2023-02-02T11:24:53.549Z,61.38
2023-02-02T11:25:53.528Z,66.00
2023-02-02T11:26:53.534Z,59.43
2023-02-02T11:27:53.468Z,60.48
2023-02-02T11:28:53.469Z,61.16
2023-02-02T11:29:53.455Z,63.08
2023-02-02T11:30:53.535Z,60.51
2023-02-02T11:31:53.494Z,60.55
2023-02-02T11:32:53.506Z,59.56
2023-02-02T11:33:53.398Z,60.26
2023-02-02T11:34:53.408Z,60.98
2023-02-02T11:35:53.593Z,65.12
2023-02-02T11:36:53.422Z,62.43
2023-02-02T11:37:53.377Z,61.25
2023-02-02T11:38:53.356Z,59.38
2023-02-02T11:39:53.997Z,60.13
2023-02-02T11:40:53.333Z,62.15
2023-02-02T11:41:53.384Z,69.93
2023-02-02T11:42:53.317Z,59.57
2023-02-02T11:43:53.378Z,59.90
2023-02-02T11:44:53.337Z,60.64
2023-02-02T11:45:53.275Z,59.94
2023-02-02T11:46:53.365Z,60.42
2023-02-02T11:47:53.311Z,61.42
2023-02-02T11:48:53.282Z,62.39
2023-02-02T11:49:53.246Z,63.28
2023-02-02T11:50:53.416Z,62.49
2023-02-02T11:51:53.240Z,60.93
2023-02-02T11:52:53.237Z,62.11
2023-02-02T11:53:53.303Z,60.13
2023-02-02T11:54:53.208Z,62.89
2023-02-02T11:55:53.239Z,60.84
2023-02-02T11:56:53.240Z,60.22
2023-02-02T11:57:53.175Z,60.67
2023-02-02T11:58:53.182Z,61.10
2023-02-02T11:59:53.247Z,60.74
2023-02-02T12:00:53.165Z,67.57
2023-02-02T12:01:53.140Z,60.76
2023-02-02T12:02:53.161Z,60.86
2023-02-02T12:03:53.196Z,60.09
2023-02-02T12:04:53.117Z,61.18
2023-02-02T12:05:53.238Z,61.61
2023-02-02T12:06:53.115Z,68.38
2023-02-02T12:07:53.080Z,61.53
2023-02-02T12:08:53.192Z,61.02
2023-02-02T12:09:53.057Z,62.12
2023-02-02T12:10:53.059Z,60.88
2023-02-02T12:11:53.137Z,60.93
2023-02-02T12:12:53.033Z,63.68
2023-02-02T12:13:53.030Z,61.90
2023-02-02T12:14:53.090Z,60.12
2023-02-02T12:15:53.058Z,62.58
2023-02-02T12:16:52.980Z,60.68
2023-02-02T12:17:53.113Z,61.57
2023-02-02T12:18:52.968Z,61.57
2023-02-02T12:19:52.969Z,62.32
2023-02-02T12:20:53.089Z,64.67
2023-02-02T12:21:52.942Z,58.77
2023-02-02T12:22:52.949Z,61.40
2023-02-02T12:23:53.085Z,61.97
2023-02-02T12:24:52.927Z,63.76
2023-02-02T12:25:52.898Z,62.67
2023-02-02T12:26:53.064Z,65.19
2023-02-02T12:27:52.907Z,65.84
2023-02-02T12:28:52.874Z,61.12
2023-02-02T12:29:53.024Z,62.47
2023-02-02T12:30:52.937Z,61.84
2023-02-02T12:31:52.872Z,64.16
2023-02-02T12:32:52.886Z,61.35
2023-02-02T12:33:52.852Z,61.07
2023-02-02T12:34:52.817Z,60.99
2023-02-02T12:35:52.895Z,60.88
2023-02-02T12:36:52.798Z,62.01
2023-02-02T12:37:52.906Z,61.29
2023-02-02T12:38:52.803Z,61.91
2023-02-02T12:39:52.776Z,61.51
2023-02-02T12:40:52.879Z,67.91
2023-02-02T12:41:52.745Z,73.34
2023-02-02T12:42:52.827Z,66.27
2023-02-02T12:43:52.930Z,65.13
2023-02-02T12:44:52.711Z,62.62
2023-02-02T12:45:52.762Z,67.69
2023-02-02T12:46:52.862Z,62.43
2023-02-02T12:47:52.714Z,61.15
2023-02-02T12:48:52.742Z,61.33
2023-02-02T12:49:52.689Z,59.76
2023-02-02T12:50:52.692Z,60.58
2023-02-02T12:51:52.639Z,66.23